HKNW METAR and TAF | Updated Today

HKNW METAR

Nairobi Wilson Airport

Observation time: 66 min. ago

HKNW 061800Z 04008KT CAVOK 23/10 Q1019

Need help? Read our tutorial on how to read METARs or read the parsed version below.

Nairobi Wilson Airport (HKNW) METAR

  • Weather conditions on Mon, 06 Feb 2023 18:00:00 +0000 (66 min. ago):
  • Present conditions: Dry
  • Clouds: Clear skies
  • Visibility: Greater than 10 km
  • Wind: 40 degrees at 8 knots
  • Temperature: 23 celsius
  • Dew point: 10 celsius
  • Pressure: 1019 millibars
  • Remarks: None


Useful to know...

HKNW TAF

Nairobi Wilson Airport

TAF HKNW 061100Z 0612/0712 06010KT 9999 SCT028 BECMG 0620/0622 36005KT CAVOK BECMG 0707/0709 06010KT 9999 SCT026
Observation time: 8:06 hr. ago
Need help? Read our tutorial on how to read TAFs or read the parsed version below.

Parsed version of TAF for Nairobi Wilson Airport (HKNW)

  • From 06 February at 12:00 UTC, to day 07 of the month at 12:00 UTC
  • Clouds: Scattered at 853 meters
  • Visibility: Greater than 10 km
  • Wind: 60 degrees at 10
  • Expected to arise soon, from 06 February at 20:00 UTC, to day 06 of the month at 22:00 UTC
  • Visibility: Greater than 10 km
  • Wind: 360 degrees at 5
  • Expected to arise soon, from 07 February at 07:00 UTC, to day 07 of the month at 09:00 UTC
  • Clouds: Scattered at 792 meters
  • Visibility: Greater than 10 km
  • Wind: 60 degrees at 10